Estación Meteorológica Peña el Pijo (Robertgarden) [ 09/24/17 17:47:28 CEST ]

Fecha Hora Presion(HPa) Temp (°C) Humedad % Rocio (°C) Viento ( m/s) Direccion Lluvia 1Hora(mm) Lluvia 24H(mm) LLuvia Total(mm)
2017-Aug-10 01:01:53 1011.200 14.4 41 1.3         1437.96
2017-Aug-10 02:02:07 1011.400 13.0 45 1.2         1437.96
2017-Aug-10 03:01:16 1011.500 12.3 47 1.2         1437.96
2017-Aug-10 04:01:10 1011.700 12.9 47 1.8         1437.96
2017-Aug-10 05:01:11 1011.800 14.9 47 3.6         1437.96
2017-Aug-10 06:01:12 1012.100 16.8 68 10.9         1437.96
2017-Aug-10 07:01:36 1012.600 16.3 72 11.3         1437.96
2017-Aug-10 08:01:51 1013.400 15.9 74 11.3         1437.96
2017-Aug-10 09:01:41 1013.600 16.3 73 11.5         1437.96
2017-Aug-10 10:01:34 1014.100 17.2 71 11.9         1437.96
2017-Aug-10 11:01:48 1014.400 19.6 66 13.0 2.1 S     1437.96
2017-Aug-10 12:01:45 1014.700 22.9 55 13.3         1437.96
2017-Aug-10 13:01:42 1014.500 26.1 47 13.9         1437.96
2017-Aug-10 14:01:52 1014.100 28.0 41 13.5         1437.96
2017-Aug-10 15:01:57 1013.700 29.1 38 13.3         1437.96
2017-Aug-10 16:01:50 1013.400 28.6 37 12.4         1437.96
2017-Aug-10 17:02:01 1013.300 27.3 41 12.9         1437.96
2017-Aug-10 18:01:53 1013.300 26.9 42 12.9         1437.96
2017-Aug-10 19:01:46 1013.300 25.9 44 12.7         1437.96
2017-Aug-10 20:01:37 1013.400 23.1 53 12.9         1437.96
2017-Aug-10 21:01:56 1014.100 21.3 59 13.0         1437.96
2017-Aug-10 22:01:44 1014.400 19.3 65 12.5         1437.96
2017-Aug-10 23:01:43 1015.200 18.2 70 12.7         1437.96

Temperatura Máxima:29°    Temperatura Mínima:12°
Presión Máxima:1015.200 Hpa    Presión Mínima:1011.200 Hpa


Volver